Time;durP1;ratioP1;P1;durP2;ratioP2;P2;SDS_P1;SDS_P2;PMS_P1;PMS_P2;Temp;Humidity;BMP_temperature;BMP_pressure;BME280_temperature;BME280_humidity;BME280_pressure;Samples;Min_cycle;Max_cycle;Signal;HPM_P1;HPM_P2
2023/02/08 00:00:24;;;;;;;;;;;;;;;-3.76;77.02;98328.78;5093533;28;19941;-75
2023/02/08 00:02:51;;;;;;;;;;;;;;;-3.78;76.71;98325.47;5093571;28;19963;-75
2023/02/08 00:05:17;;;;;;;;;;;;;;;-3.81;77.16;98321.34;5093802;28;20425;-75
2023/02/08 00:07:43;;;;;;;;;;;;;;;-3.84;76.74;98318.94;5095844;28;19952;-75
2023/02/08 00:10:09;;;;;;;;;;;;;;;-3.87;76.85;98317.34;5097403;28;19943;-75
2023/02/08 00:12:35;;;;;;;;;;;;;;;-3.90;76.67;98307.28;5097361;28;19947;-75
2023/02/08 00:15:01;;;;;;;;;;;;;;;-3.92;76.91;98314.22;5097224;28;20366;-75
2023/02/08 00:17:27;;;;;;;;;;;;;;;-3.95;77.06;98313.53;5097157;28;19949;-75
2023/02/08 00:19:53;;;;;;;;;;;;;;;-3.98;78.01;98309.41;5097055;28;20004;-75
2023/02/08 00:22:19;;;;;;;;;;;;;;;-4.01;77.63;98312.16;5096936;28;20004;-75
2023/02/08 00:24:45;;;;;;;;;;;;;;;-4.04;78.20;98314.84;5097005;28;20037;-75
2023/02/08 00:27:10;;;;;;;;;;;;;;;-4.06;77.81;98306.41;5096936;28;19956;-75
2023/02/08 00:29:36;;;;;;;;;;;;;;;-4.10;77.88;98298.06;5096803;28;19955;-75
2023/02/08 00:32:03;;;;;;;;;;;;;;;-4.12;77.59;98302.44;5096742;28;19958;-75
2023/02/08 00:34:29;;;;;;;;;;;;;;;-4.16;78.56;98305.25;5096719;28;19957;-75
2023/02/08 00:36:54;;;;;;;;;;;;;;;-4.18;78.59;98302.78;5096750;28;19943;-75
2023/02/08 00:39:20;;;;;;;;;;;;;;;-4.20;78.83;98306.31;5097014;28;19957;-75
2023/02/08 00:41:46;;;;;;;;;;;;;;;-4.23;79.72;98303.91;5096415;28;20018;-75
2023/02/08 00:44:12;;;;;;;;;;;;;;;-4.24;79.63;98308.22;5096632;28;19964;-75
2023/02/08 00:46:38;;;;;;;;;;;;;;;-4.25;79.14;98296.31;5096634;28;19952;-75
2023/02/08 00:49:04;;;;;;;;;;;;;;;-4.27;78.88;98290.44;5096507;28;20003;-74
2023/02/08 00:51:30;;;;;;;;;;;;;;;-4.31;78.70;98284.63;5096290;28;19944;-75
2023/02/08 00:53:55;;;;;;;;;;;;;;;-4.31;79.43;98294.06;5096710;28;19964;-75
2023/02/08 00:56:21;;;;;;;;;;;;;;;-4.30;78.95;98293.16;5096305;28;19949;-75
2023/02/08 00:58:47;;;;;;;;;;;;;;;-4.31;78.53;98286.38;5096414;28;20019;-75
2023/02/08 01:01:13;;;;;;;;;;;;;;;-4.31;77.70;98291.50;5096414;28;19948;-75
2023/02/08 01:03:40;;;;;;;;;;;;;;;-4.30;78.22;98290.59;5077892;28;20416;-76
2023/02/08 01:06:07;;;;;;;;;;;;;;;-4.34;78.51;98292.50;5096560;28;19944;-75
2023/02/08 01:08:33;;;;;;;;;;;;;;;-4.36;78.21;98284.06;5095864;28;20396;-75
2023/02/08 01:11:08;;;;;;;;;;;;;;;-4.41;78.46;98286.03;5096200;28;20040;-74
2023/02/08 01:13:35;;;;;;;;;;;;;;;-4.42;78.89;98299.72;5095800;28;19957;-75
2023/02/08 01:16:15;;;;;;;;;;;;;;;-4.44;79.46;98303.28;5095656;28;19973;-75
2023/02/08 01:18:44;;;;;;;;;;;;;;;-4.48;79.46;98302.59;5094728;28;19950;-76
2023/02/08 01:21:12;;;;;;;;;;;;;;;-4.50;79.87;98301.84;5078254;28;19948;-75
2023/02/08 01:23:38;;;;;;;;;;;;;;;-4.53;80.28;98310.53;5095876;28;19956;-75
2023/02/08 01:26:05;;;;;;;;;;;;;;;-4.56;79.67;98302.16;5077710;28;19948;-75
2023/02/08 01:28:31;;;;;;;;;;;;;;;-4.59;79.02;98295.47;5095744;28;19956;-74
2023/02/08 01:30:57;;;;;;;;;;;;;;;-4.61;78.90;98301.59;5095724;28;19957;-75
2023/02/08 01:33:23;;;;;;;;;;;;;;;-4.64;78.74;98289.78;5095837;28;19945;-75
2023/02/08 01:35:50;;;;;;;;;;;;;;;-4.63;79.44;98290.59;5095764;28;19950;-75
2023/02/08 01:38:16;;;;;;;;;;;;;;;-4.64;78.92;98283.78;5095821;28;19953;-75
2023/02/08 01:40:42;;;;;;;;;;;;;;;-4.66;78.55;98267.69;5095559;28;20337;-76
2023/02/08 01:43:34;;;;;;;;;;;;;;;-4.64;78.56;98268.44;5094996;28;20077;-75
2023/02/08 01:46:00;;;;;;;;;;;;;;;-4.69;78.03;98261.00;5092583;28;19956;-75
2023/02/08 01:48:30;;;;;;;;;;;;;;;-4.71;78.40;98263.63;5095388;28;19943;-75
2023/02/08 01:50:56;;;;;;;;;;;;;;;-4.71;78.47;98268.75;5095239;28;19945;-75
2023/02/08 01:53:23;;;;;;;;;;;;;;;-4.72;78.94;98261.97;5095112;28;19943;-75
2023/02/08 01:55:52;;;;;;;;;;;;;;;-4.75;78.30;98262.13;5095861;28;19953;-75
2023/02/08 01:58:19;;;;;;;;;;;;;;;-4.75;78.82;98248.50;5095298;28;19947;-75
2023/02/08 02:00:45;;;;;;;;;;;;;;;-4.77;79.34;98261.38;5094998;28;19958;-75
2023/02/08 02:03:12;;;;;;;;;;;;;;;-4.79;78.93;98247.00;5094982;28;19948;-74
2023/02/08 02:05:42;;;;;;;;;;;;;;;-4.83;79.26;98256.59;5077047;28;19954;-75
2023/02/08 02:08:10;;;;;;;;;;;;;;;-4.88;79.46;98255.16;5094943;28;19953;-75
2023/02/08 02:10:38;;;;;;;;;;;;;;;-4.93;79.77;98252.84;5095464;28;19947;-75
2023/02/08 02:13:06;;;;;;;;;;;;;;;-4.98;79.77;98250.47;5095298;28;19953;-75
2023/02/08 02:15:32;;;;;;;;;;;;;;;-5.01;80.50;98255.75;5094866;28;19954;-75
2023/02/08 02:17:59;;;;;;;;;;;;;;;-5.02;80.16;98263.50;5094890;28;19947;-74
2023/02/08 02:20:43;;;;;;;;;;;;;;;-5.02;80.00;98248.16;5094637;28;19954;-75
2023/02/08 02:23:38;;;;;;;;;;;;;;;-5.06;79.90;98244.09;5094523;28;19950;-75
2023/02/08 02:26:16;;;;;;;;;;;;;;;-5.10;79.84;98246.81;5040044;28;19953;-75
2023/02/08 02:28:51;;;;;;;;;;;;;;;-5.16;80.20;98247.13;5085474;28;20384;-75
2023/02/08 02:31:35;;;;;;;;;;;;;;;-5.20;80.18;98240.50;5094471;28;20447;-75
2023/02/08 02:34:08;;;;;;;;;;;;;;;-5.24;80.47;98251.78;5094076;28;19946;-75
2023/02/08 02:36:43;;;;;;;;;;;;;;;-5.25;80.87;98244.16;5094700;28;19942;-76
2023/02/08 02:39:12;;;;;;;;;;;;;;;-5.25;80.56;98244.16;5094588;28;19946;-75
2023/02/08 02:44:45;;;;;;;;;;;;;;;-5.29;81.39;98253.72;5094274;28;19959;-74
2023/02/08 02:47:16;;;;;;;;;;;;;;;-5.31;80.81;98245.31;5094318;28;20315;-75
2023/02/08 02:49:47;;;;;;;;;;;;;;;-5.32;80.60;98241.09;5094333;28;19943;-75
2023/02/08 02:52:18;;;;;;;;;;;;;;;-5.34;80.49;98243.72;5094226;28;19948;-75
2023/02/08 02:54:46;;;;;;;;;;;;;;;-5.35;80.59;98236.13;5094267;28;20292;-74
2023/02/08 02:57:15;;;;;;;;;;;;;;;-5.35;80.26;98236.13;5094595;28;19952;-74
2023/02/08 02:59:42;;;;;;;;;;;;;;;-5.36;80.28;98242.13;5094141;28;19971;-75
2023/02/08 03:02:08;;;;;;;;;;;;;;;-5.34;79.73;98236.03;5093944;28;20394;-75
2023/02/08 03:04:34;;;;;;;;;;;;;;;-5.32;79.55;98234.22;5093979;28;19976;-75
2023/02/08 03:07:06;;;;;;;;;;;;;;;-5.32;79.06;98223.19;5093812;28;19936;-75
2023/02/08 03:09:32;;;;;;;;;;;;;;;-5.32;79.38;98233.41;5093920;28;19944;-75
2023/02/08 03:12:09;;;;;;;;;;;;;;;-5.29;78.85;98230.72;5093963;28;19974;-75
2023/02/08 03:14:45;;;;;;;;;;;;;;;-5.28;78.81;98223.88;5093780;28;19958;-75
2023/02/08 03:17:27;;;;;;;;;;;;;;;-5.29;78.79;98228.16;5093884;28;19950;-75
2023/02/08 03:20:03;;;;;;;;;;;;;;;-5.26;78.00;98228.00;5094060;28;20410;-75
2023/02/08 03:22:29;;;;;;;;;;;;;;;-5.26;78.15;98228.00;5094180;28;19942;-75
2023/02/08 03:25:08;;;;;;;;;;;;;;;-5.26;78.38;98219.50;5093680;28;19950;-75
2023/02/08 03:27:42;;;;;;;;;;;;;;;-5.27;77.27;98222.94;5093841;28;19949;-75
2023/02/08 03:30:14;;;;;;;;;;;;;;;-5.28;77.29;98222.13;5094325;28;20319;-75
2023/02/08 03:32:43;;;;;;;;;;;;;;;-5.27;77.76;98220.41;5093697;28;20398;-75
2023/02/08 03:35:21;;;;;;;;;;;;;;;-5.25;76.78;98219.44;5093718;28;19947;-75
2023/02/08 03:37:56;;;;;;;;;;;;;;;-5.23;76.80;98209.09;5093513;28;19942;-75
2023/02/08 03:40:35;;;;;;;;;;;;;;;-5.27;77.02;98205.91;5075494;28;19953;-74
2023/02/08 03:43:05;;;;;;;;;;;;;;;-5.27;76.74;98202.50;5096531;28;19979;-75
2023/02/08 03:45:34;;;;;;;;;;;;;;;-5.27;76.92;98202.50;5063117;28;19971;-75
2023/02/08 03:48:02;;;;;;;;;;;;;;;-5.31;76.82;98202.66;5079640;28;19952;-75
2023/02/08 03:50:30;;;;;;;;;;;;;;;-5.33;76.64;98208.75;5097521;28;19960;-75
2023/02/08 03:52:57;;;;;;;;;;;;;;;-5.35;77.00;98215.69;5097713;28;19955;-74
2023/02/08 03:55:33;;;;;;;;;;;;;;;-5.39;77.39;98209.88;5079495;28;20327;-75
2023/02/08 03:58:05;;;;;;;;;;;;;;;-5.41;77.93;98214.22;5097740;28;20330;-76
2023/02/08 04:00:34;;;;;;;;;;;;;;;-5.44;77.94;98213.53;5097388;28;19948;-75
2023/02/08 04:03:21;;;;;;;;;;;;;;;-5.49;78.76;98210.41;5062670;28;19949;-75
2023/02/08 04:05:48;;;;;;;;;;;;;;;-5.53;78.29;98217.38;5083570;28;19951;-75
2023/02/08 04:08:14;;;;;;;;;;;;;;;-5.54;78.37;98221.66;5097457;28;20314;-75
2023/02/08 04:10:39;;;;;;;;;;;;;;;-5.55;78.81;98221.72;5096661;28;19963;-74
2023/02/08 04:13:05;;;;;;;;;;;;;;;-5.57;78.48;98219.25;5096995;28;19952;-75
2023/02/08 04:15:31;;;;;;;;;;;;;;;-5.58;78.25;98215.03;5097039;28;19955;-75
2023/02/08 04:17:57;;;;;;;;;;;;;;;-5.60;78.33;98216.84;5097335;28;19947;-75
2023/02/08 04:20:23;;;;;;;;;;;;;;;-5.63;78.19;98204.19;5097275;28;19954;-75
2023/02/08 04:22:49;;;;;;;;;;;;;;;-5.64;78.44;98212.78;5097070;28;19948;-75
2023/02/08 04:25:15;;;;;;;;;;;;;;;-5.65;78.06;98208.56;5096912;28;20417;-74
2023/02/08 04:27:41;;;;;;;;;;;;;;;-5.65;77.67;98208.56;5096881;28;19948;-75
2023/02/08 04:30:07;;;;;;;;;;;;;;;-5.63;77.78;98203.38;5097220;28;19951;-75
2023/02/08 04:32:33;;;;;;;;;;;;;;;-5.61;78.46;98206.69;5097197;28;19958;-75
2023/02/08 04:34:59;;;;;;;;;;;;;;;-5.60;78.20;98209.19;5097302;28;19950;-75
2023/02/08 04:37:24;;;;;;;;;;;;;;;-5.59;77.98;98212.56;5078708;28;19951;-75
2023/02/08 04:39:50;;;;;;;;;;;;;;;-5.60;77.90;98208.34;5096921;28;20294;-75
2023/02/08 04:42:16;;;;;;;;;;;;;;;-5.61;78.16;98211.81;5096460;28;20456;-74
2023/02/08 04:44:42;;;;;;;;;;;;;;;-5.63;77.91;98211.03;5096671;28;20330;-74
2023/02/08 04:47:08;;;;;;;;;;;;;;;-5.64;77.58;98211.97;5096503;28;19951;-75
2023/02/08 04:49:34;;;;;;;;;;;;;;;-5.65;77.71;98200.88;5096582;28;20471;-75
2023/02/08 04:51:59;;;;;;;;;;;;;;;-5.65;77.85;98206.00;5096356;28;19963;-75
2023/02/08 04:54:26;;;;;;;;;;;;;;;-5.64;77.65;98196.63;5078257;28;20395;-75
2023/02/08 04:56:51;;;;;;;;;;;;;;;-5.66;77.52;98195.88;5096223;28;19959;-75
2023/02/08 04:59:17;;;;;;;;;;;;;;;-5.68;77.85;98195.94;5078157;28;19950;-75
2023/02/08 05:01:43;;;;;;;;;;;;;;;-5.71;77.38;98196.91;5096523;28;19951;-75
2023/02/08 05:04:09;;;;;;;;;;;;;;;-5.72;77.55;98191.88;5096526;28;20340;-75
2023/02/08 05:06:35;;;;;;;;;;;;;;;-5.74;77.81;98184.28;5096406;28;20429;-75
2023/02/08 05:09:01;;;;;;;;;;;;;;;-5.74;77.67;98181.72;5096288;28;19950;-74
2023/02/08 05:11:27;;;;;;;;;;;;;;;-5.75;77.50;98182.63;5095894;28;19965;-75
2023/02/08 05:13:53;;;;;;;;;;;;;;;-5.77;78.01;98181.88;5095939;28;19954;-75
2023/02/08 05:16:19;;;;;;;;;;;;;;;-5.80;77.67;98174.34;5095482;28;19954;-75
2023/02/08 05:18:45;;;;;;;;;;;;;;;-5.82;77.63;98181.25;5096204;28;19952;-75
2023/02/08 05:21:11;;;;;;;;;;;;;;;-5.82;77.91;98177.88;5077985;28;20404;-75
2023/02/08 05:23:37;;;;;;;;;;;;;;;-5.83;77.66;98174.50;5095949;28;19976;-76
2023/02/08 05:26:06;;;;;;;;;;;;;;;-5.81;77.54;98175.25;5095280;28;19953;-75
2023/02/08 05:28:32;;;;;;;;;;;;;;;-5.77;76.83;98178.50;5095871;28;19958;-75
2023/02/08 05:30:58;;;;;;;;;;;;;;;-5.76;77.61;98175.03;5077790;28;20288;-76
2023/02/08 05:33:24;;;;;;;;;;;;;;;-5.74;77.18;98180.91;5095600;28;19949;-75
2023/02/08 05:35:50;;;;;;;;;;;;;;;-5.73;77.05;98175.72;5095658;28;19995;-75
2023/02/08 05:38:16;;;;;;;;;;;;;;;-5.72;77.03;98179.91;5095802;28;19950;-74
2023/02/08 05:40:42;;;;;;;;;;;;;;;-5.69;77.17;98178.13;5095921;28;19952;-74
2023/02/08 05:43:08;;;;;;;;;;;;;;;-5.69;76.95;98189.19;5095648;28;19981;-75
2023/02/08 05:45:33;;;;;;;;;;;;;;;-5.66;77.15;98180.53;5077838;28;20012;-74
2023/02/08 05:47:59;;;;;;;;;;;;;;;-5.68;76.80;98179.78;5095346;28;19952;-75
2023/02/08 05:50:26;;;;;;;;;;;;;;;-5.69;77.06;98186.63;5095378;28;20409;-75
2023/02/08 05:52:52;;;;;;;;;;;;;;;-5.68;77.04;98185.72;5095198;28;19961;-75
2023/02/08 05:55:18;;;;;;;;;;;;;;;-5.69;77.05;98183.22;5095408;28;20290;-75
2023/02/08 05:57:44;;;;;;;;;;;;;;;-5.72;77.13;98191.88;5095272;28;20346;-75
2023/02/08 06:00:10;;;;;;;;;;;;;;;-5.72;77.11;98190.13;5095060;28;19945;-75
2023/02/08 06:02:36;;;;;;;;;;;;;;;-5.76;77.13;98195.47;5095120;28;19949;-75
2023/02/08 06:05:02;;;;;;;;;;;;;;;-5.80;77.10;98199.06;5094326;28;19978;-75
2023/02/08 06:07:28;;;;;;;;;;;;;;;-5.83;77.89;98199.22;5094833;28;19958;-75
2023/02/08 06:09:54;;;;;;;;;;;;;;;-5.83;77.62;98197.50;5094754;28;19945;-75
2023/02/08 06:12:20;;;;;;;;;;;;;;;-5.84;77.74;98202.66;5095452;28;19996;-75
2023/02/08 06:14:46;;;;;;;;;;;;;;;-5.85;77.77;98201.03;5094755;28;19959;-75
2023/02/08 06:17:12;;;;;;;;;;;;;;;-5.85;77.89;98203.59;5094956;28;19953;-75
2023/02/08 06:19:37;;;;;;;;;;;;;;;-5.83;77.64;98207.72;5094959;28;20407;-75
2023/02/08 06:22:03;;;;;;;;;;;;;;;-5.84;77.18;98198.38;5095004;28;20353;-75
2023/02/08 06:24:29;;;;;;;;;;;;;;;-5.83;77.23;98206.91;5094656;28;20365;-75
2023/02/08 06:26:55;;;;;;;;;;;;;;;-5.86;77.20;98195.06;5076374;28;19988;-75
2023/02/08 06:29:21;;;;;;;;;;;;;;;-5.90;77.27;98198.66;5094930;28;19952;-75
2023/02/08 06:31:47;;;;;;;;;;;;;;;-5.91;77.22;98197.84;5094535;28;20396;-75
2023/02/08 06:34:13;;;;;;;;;;;;;;;-5.92;77.54;98205.59;5076577;28;19997;-75
2023/02/08 06:36:39;;;;;;;;;;;;;;;-5.94;77.25;98205.66;5094401;28;19951;-77
2023/02/08 06:39:04;;;;;;;;;;;;;;;-5.94;77.46;98200.56;5094477;28;19948;-75
2023/02/08 06:41:30;;;;;;;;;;;;;;;-5.97;77.13;98200.72;5094011;28;19955;-75
2023/02/08 06:43:58;;;;;;;;;;;;;;;-5.98;77.32;98199.06;5094882;28;19951;-75
2023/02/08 06:46:24;;;;;;;;;;;;;;;-5.98;77.49;98208.47;5094220;28;19948;-75
2023/02/08 06:48:50;;;;;;;;;;;;;;;-6.01;77.15;98204.31;5094270;28;20390;-74
2023/02/08 06:51:15;;;;;;;;;;;;;;;-6.01;77.54;98209.41;5094319;28;19953;-75
2023/02/08 06:53:41;;;;;;;;;;;;;;;-6.03;77.14;98213.75;5095007;28;19954;-75
2023/02/08 06:56:07;;;;;;;;;;;;;;;-6.04;77.14;98204.47;5094485;28;19970;-75
2023/02/08 06:58:33;;;;;;;;;;;;;;;-6.04;77.33;98207.03;5094391;28;20463;-75
2023/02/08 07:00:59;;;;;;;;;;;;;;;-6.06;77.34;98213.94;5094492;28;20013;-75
2023/02/08 07:03:25;;;;;;;;;;;;;;;-6.04;77.56;98213.84;5094278;28;19943;-75
2023/02/08 07:05:50;;;;;;;;;;;;;;;-6.04;77.69;98211.31;5093860;28;20014;-75
2023/02/08 07:08:16;;;;;;;;;;;;;;;-6.02;77.75;98223.09;5094060;28;20307;-75
2023/02/08 07:10:42;;;;;;;;;;;;;;;-5.98;78.00;98214.41;5093794;28;19991;-75
2023/02/08 07:13:08;;;;;;;;;;;;;;;-5.96;77.30;98207.50;5093717;28;20458;-75
2023/02/08 07:15:34;;;;;;;;;;;;;;;-5.89;77.33;98210.56;5093498;28;19951;-75
2023/02/08 07:18:00;;;;;;;;;;;;;;;-5.79;77.32;98208.41;5093282;28;19997;-75
2023/02/08 07:20:26;;;;;;;;;;;;;;;-5.55;76.56;98206.41;5093531;28;19991;-75
2023/02/08 07:22:51;;;;;;;;;;;;;;;-5.17;76.23;98208.81;5093059;28;20418;-74
2023/02/08 07:25:17;;;;;;;;;;;;;;;-4.65;74.05;98200.25;5093642;28;20020;-75
2023/02/08 07:27:43;;;;;;;;;;;;;;;-4.21;72.37;98187.66;5093399;28;19993;-74
2023/02/08 07:30:09;;;;;;;;;;;;;;;-3.88;70.72;98179.84;5093707;28;20407;-75
2023/02/08 07:32:35;;;;;;;;;;;;;;;-3.57;69.45;98172.19;5093578;28;19954;-75
2023/02/08 07:35:01;;;;;;;;;;;;;;;-3.23;69.83;98181.38;5093132;28;19998;-75
2023/02/08 07:37:27;;;;;;;;;;;;;;;-2.88;68.02;98168.19;5093866;28;19943;-75
2023/02/08 07:39:53;;;;;;;;;;;;;;;-2.54;67.62;98167.00;5093120;28;20411;-75
2023/02/08 07:42:19;;;;;;;;;;;;;;;-2.27;65.58;98164.50;5093560;28;19980;-75
2023/02/08 07:44:45;;;;;;;;;;;;;;;-2.04;64.78;98159.63;5093390;28;19986;-75
2023/02/08 07:47:11;;;;;;;;;;;;;;;-1.91;65.84;98168.25;5093186;28;19944;-76
2023/02/08 07:49:36;;;;;;;;;;;;;;;-1.80;64.04;98159.84;5093238;28;19955;-75
2023/02/08 07:52:02;;;;;;;;;;;;;;;-1.68;64.45;98159.06;5093284;28;19941;-75
2023/02/08 07:54:28;;;;;;;;;;;;;;;-1.60;64.03;98158.56;5058446;28;19949;-75
2023/02/08 07:56:54;;;;;;;;;;;;;;;-1.56;63.31;98162.56;5093114;28;19952;-75
2023/02/08 07:59:20;;;;;;;;;;;;;;;-1.49;64.67;98170.72;5092996;28;19948;-75
2023/02/08 08:01:46;;;;;;;;;;;;;;;-1.49;64.60;98181.88;5093088;28;19994;-76
2023/02/08 08:04:12;;;;;;;;;;;;;;;-1.51;63.70;98163.13;5093128;28;19952;-75
2023/02/08 08:06:38;;;;;;;;;;;;;;;-1.51;63.96;98170.00;5093201;28;19950;-75
2023/02/08 08:09:04;;;;;;;;;;;;;;;-1.45;62.84;98164.44;5075646;28;19943;-76
2023/02/08 08:11:30;;;;;;;;;;;;;;;-1.39;63.49;98161.47;5093518;28;19959;-75
2023/02/08 08:13:56;;;;;;;;;;;;;;;-1.32;61.55;98147.31;5093293;28;19994;-75
2023/02/08 08:16:22;;;;;;;;;;;;;;;-1.27;61.38;98147.00;5093499;28;20436;-75
2023/02/08 08:18:48;;;;;;;;;;;;;;;-1.16;60.94;98138.56;5093148;28;19993;-75
2023/02/08 08:21:15;;;;;;;;;;;;;;;-1.13;62.69;98144.34;5093164;28;20000;-75
2023/02/08 08:23:41;;;;;;;;;;;;;;;-1.07;61.96;98151.66;5093422;28;19954;-75
2023/02/08 08:26:09;;;;;;;;;;;;;;;-1.03;61.27;98144.53;5093057;28;20460;-75
2023/02/08 08:28:35;;;;;;;;;;;;;;;-0.90;61.03;98155.66;5095314;28;19955;-75
2023/02/08 08:31:01;;;;;;;;;;;;;;;-0.72;61.15;98153.56;5079017;28;19950;-75
2023/02/08 08:33:27;;;;;;;;;;;;;;;-0.58;63.42;98167.28;5096758;28;19984;-76
2023/02/08 08:35:53;;;;;;;;;;;;;;;-0.47;60.31;98155.28;5097377;28;19945;-75
2023/02/08 08:38:19;;;;;;;;;;;;;;;-0.27;60.71;98155.69;5096845;28;19950;-75
2023/02/08 08:40:45;;;;;;;;;;;;;;;-0.06;61.46;98158.50;5096790;28;19953;-75
2023/02/08 08:43:10;;;;;;;;;;;;;;;0.07;59.51;98148.94;5096433;28;20030;-76
2023/02/08 08:45:37;;;;;;;;;;;;;;;0.19;58.33;98145.50;5096640;28;19970;-75
2023/02/08 08:48:03;;;;;;;;;;;;;;;0.29;59.33;98155.13;5096472;28;20296;-76
2023/02/08 08:50:28;;;;;;;;;;;;;;;0.38;59.90;98151.91;5096473;28;19993;-75
2023/02/08 08:52:54;;;;;;;;;;;;;;;0.50;59.33;98156.16;5096526;28;19954;-75
2023/02/08 08:55:20;;;;;;;;;;;;;;;0.57;56.39;98144.47;5096521;28;19952;-76
2023/02/08 08:57:46;;;;;;;;;;;;;;;0.65;58.68;98150.81;5096558;28;19955;-76
2023/02/08 09:00:12;;;;;;;;;;;;;;;0.69;58.92;98153.03;5096453;28;20404;-75
2023/02/08 09:02:38;;;;;;;;;;;;;;;0.74;57.82;98148.38;5096161;28;20408;-76
2023/02/08 09:05:06;;;;;;;;;;;;;;;0.74;58.56;98152.72;5078191;28;20012;-75
2023/02/08 09:07:33;;;;;;;;;;;;;;;0.69;58.40;98147.88;5078489;28;19951;-76
2023/02/08 09:09:59;;;;;;;;;;;;;;;0.72;58.40;98152.00;5096295;28;19948;-76
2023/02/08 09:12:25;;;;;;;;;;;;;;;0.72;57.16;98146.84;5096212;28;20328;-76
2023/02/08 09:14:51;;;;;;;;;;;;;;;0.69;55.29;98140.13;5095907;28;20035;-76
2023/02/08 09:17:16;;;;;;;;;;;;;;;0.75;58.83;98146.59;5096553;28;20469;-76
2023/02/08 09:19:42;;;;;;;;;;;;;;;0.81;58.16;98143.56;5095864;28;20319;-76
2023/02/08 09:22:08;;;;;;;;;;;;;;;0.84;58.51;98152.84;5096249;28;20001;-76
2023/02/08 09:24:34;;;;;;;;;;;;;;;0.90;55.77;98139.47;5081432;28;19964;-75
2023/02/08 09:27:00;;;;;;;;;;;;;;;0.98;56.62;98143.13;5077853;28;19953;-76
2023/02/08 09:29:28;;;;;;;;;;;;;;;1.01;55.19;98139.50;5077909;28;20461;-75
2023/02/08 09:31:54;;;;;;;;;;;;;;;1.01;54.81;98145.50;5095818;28;19958;-75
2023/02/08 09:34:20;;;;;;;;;;;;;;;1.05;54.35;98143.50;5095620;28;19972;-75
2023/02/08 09:36:46;;;;;;;;;;;;;;;1.05;54.90;98145.25;5095799;28;19960;-75
2023/02/08 09:39:14;;;;;;;;;;;;;;;1.02;56.95;98146.31;5076507;28;20004;-75
2023/02/08 09:41:58;;;;;;;;;;;;;;;1.04;55.54;98149.59;5095608;28;19984;-75
2023/02/08 09:44:24;;;;;;;;;;;;;;;1.11;55.60;98137.03;5095409;28;19946;-76
2023/02/08 09:47:02;;;;;;;;;;;;;;;1.10;53.32;98141.38;5095291;28;20475;-75
2023/02/08 09:49:40;;;;;;;;;;;;;;;1.11;53.90;98143.03;5095978;28;19948;-75
2023/02/08 09:52:11;;;;;;;;;;;;;;;1.15;52.56;98136.69;5068269;28;19957;-76
2023/02/08 09:54:41;;;;;;;;;;;;;;;1.20;53.75;98137.16;5095304;28;20322;-75
2023/02/08 09:57:19;;;;;;;;;;;;;;;1.23;52.37;98135.28;5095408;28;20298;-76
2023/02/08 09:59:56;;;;;;;;;;;;;;;1.24;52.66;98135.19;5095733;28;19945;-75
2023/02/08 10:02:24;;;;;;;;;;;;;;;1.30;53.96;98137.31;5095186;28;19950;-75
2023/02/08 10:04:56;;;;;;;;;;;;;;;1.35;53.68;98132.59;5095314;28;19951;-75
2023/02/08 10:07:23;;;;;;;;;;;;;;;1.45;52.11;98143.06;5094938;28;20901;-75
2023/02/08 10:09:49;;;;;;;;;;;;;;;1.53;51.28;98132.09;5077084;28;19949;-75
2023/02/08 10:12:24;;;;;;;;;;;;;;;1.62;54.06;98132.22;5094796;28;19989;-76
2023/02/08 10:14:53;;;;;;;;;;;;;;;1.68;51.76;98130.06;5095056;28;20024;-75
2023/02/08 10:17:19;;;;;;;;;;;;;;;1.74;50.53;98125.28;5076748;28;19943;-76
2023/02/08 10:19:50;;;;;;;;;;;;;;;1.80;51.28;98135.09;5094723;28;19952;-75
2023/02/08 10:22:35;;;;;;;;;;;;;;;1.89;51.22;98135.31;5094920;28;19954;-76
2023/02/08 10:25:09;;;;;;;;;;;;;;;1.97;52.73;98128.59;5094806;28;19984;-75
2023/02/08 10:27:45;;;;;;;;;;;;;;;2.07;49.74;98125.28;5094709;28;19944;-76
2023/02/08 10:30:17;;;;;;;;;;;;;;;2.12;52.50;98131.75;5094779;28;19953;-75
2023/02/08 10:32:50;;;;;;;;;;;;;;;2.05;49.57;98120.22;5094674;28;19945;-75
2023/02/08 10:35:35;;;;;;;;;;;;;;;2.12;50.06;98112.78;5094487;28;20398;-75
2023/02/08 10:38:16;;;;;;;;;;;;;;;2.23;54.10;98121.34;5094732;28;19955;-75
2023/02/08 10:40:42;;;;;;;;;;;;;;;2.30;52.60;98124.25;5081915;28;19946;-76
2023/02/08 10:43:17;;;;;;;;;;;;;;;2.41;50.17;98123.38;5093943;28;19975;-75
2023/02/08 10:45:51;;;;;;;;;;;;;;;2.56;53.74;98126.50;5093025;28;20415;-75
2023/02/08 10:48:28;;;;;;;;;;;;;;;2.54;49.93;98105.06;5094510;28;19956;-75
2023/02/08 10:50:54;;;;;;;;;;;;;;;2.59;54.04;98123.66;5076028;28;19949;-75
2023/02/08 10:53:20;;;;;;;;;;;;;;;2.61;51.11;98117.41;5076133;28;19957;-75
2023/02/08 10:55:47;;;;;;;;;;;;;;;2.68;50.83;98104.75;5094257;28;19959;-75
2023/02/08 10:58:16;;;;;;;;;;;;;;;2.79;50.23;98104.72;5076149;28;19949;-75
2023/02/08 11:00:42;;;;;;;;;;;;;;;2.89;49.59;98096.97;5094150;28;19945;-75
2023/02/08 11:03:14;;;;;;;;;;;;;;;2.97;50.57;98093.75;5094117;28;19947;-75
2023/02/08 11:05:40;;;;;;;;;;;;;;;2.98;50.22;98100.56;5094108;28;19966;-75
2023/02/08 11:08:11;;;;;;;;;;;;;;;2.97;52.44;98101.53;5093076;28;19955;-75
2023/02/08 11:10:38;;;;;;;;;;;;;;;2.92;48.44;98095.88;5076248;28;20409;-75
2023/02/08 11:13:09;;;;;;;;;;;;;;;2.89;51.68;98094.38;5093908;28;20330;-75
2023/02/08 11:15:35;;;;;;;;;;;;;;;2.83;50.98;98085.38;5094112;28;19952;-75
2023/02/08 11:18:01;;;;;;;;;;;;;;;2.83;50.56;98084.53;5093954;28;20067;-75
2023/02/08 11:20:35;;;;;;;;;;;;;;;2.88;50.41;98089.31;5094079;28;19957;-75
2023/02/08 11:23:22;;;;;;;;;;;;;;;2.97;52.69;98091.16;5076154;28;19949;-75
2023/02/08 11:25:48;;;;;;;;;;;;;;;3.03;50.10;98086.28;5093966;28;19958;-75
2023/02/08 11:28:40;;;;;;;;;;;;;;;3.00;48.88;98076.19;5093679;28;19956;-76
2023/02/08 11:31:17;;;;;;;;;;;;;;;3.07;50.56;98081.66;5091010;28;19953;-75
2023/02/08 11:34:00;;;;;;;;;;;;;;;3.23;44.83;98065.59;5079710;28;19949;-75
2023/02/08 11:36:26;;;;;;;;;;;;;;;3.37;47.91;98065.25;5093847;28;19947;-75
2023/02/08 11:38:53;;;;;;;;;;;;;;;3.40;49.40;98061.56;5093495;28;20320;-75
2023/02/08 11:41:22;;;;;;;;;;;;;;;3.48;49.25;98060.91;5093657;28;19958;-75
2023/02/08 11:43:54;;;;;;;;;;;;;;;3.66;49.50;98054.13;5092934;28;19954;-75
2023/02/08 11:46:24;;;;;;;;;;;;;;;3.85;50.36;98053.31;5093569;28;19963;-75
2023/02/08 11:48:54;;;;;;;;;;;;;;;3.77;43.36;98038.41;5093149;28;20028;-75
2023/02/08 11:51:27;;;;;;;;;;;;;;;3.79;46.04;98046.06;5093419;28;19942;-75
2023/02/08 11:53:53;;;;;;;;;;;;;;;3.68;45.19;98038.44;5093748;28;19948;-75
2023/02/08 11:56:21;;;;;;;;;;;;;;;3.66;47.25;98036.78;5093754;28;20494;-75
2023/02/08 11:59:01;;;;;;;;;;;;;;;3.69;49.13;98046.06;5094020;28;19956;-75
2023/02/08 12:01:30;;;;;;;;;;;;;;;3.73;48.59;98031.84;5084628;28;20397;-75
2023/02/08 12:03:57;;;;;;;;;;;;;;;3.78;48.24;98027.09;5096265;28;19952;-75
2023/02/08 12:06:39;;;;;;;;;;;;;;;3.85;47.13;98037.75;5096713;28;19958;-75
2023/02/08 12:09:20;;;;;;;;;;;;;;;3.91;47.56;98029.41;5097792;28;19952;-75
2023/02/08 12:11:46;;;;;;;;;;;;;;;4.03;47.25;98028.31;5097254;28;20022;-75
2023/02/08 12:14:25;;;;;;;;;;;;;;;3.98;47.71;98029.69;5097326;28;19969;-75
2023/02/08 12:17:14;;;;;;;;;;;;;;;3.90;46.40;98021.75;5097483;28;19941;-75
2023/02/08 12:19:40;;;;;;;;;;;;;;;3.85;47.20;98020.38;5088953;28;19944;-75
2023/02/08 12:22:11;;;;;;;;;;;;;;;3.86;48.61;98014.25;5097128;28;19956;-75
2023/02/08 12:24:55;;;;;;;;;;;;;;;3.81;46.13;98006.03;5097160;28;19948;-75
2023/02/08 12:27:26;;;;;;;;;;;;;;;3.70;45.12;98013.16;5086971;28;19967;-75
2023/02/08 12:30:02;;;;;;;;;;;;;;;3.65;47.43;98009.19;5078840;28;19947;-75
2023/02/08 12:32:31;;;;;;;;;;;;;;;3.73;48.48;98002.50;5097094;28;20320;-75
2023/02/08 12:35:15;;;;;;;;;;;;;;;3.77;47.88;97998.69;5096964;28;19966;-75
2023/02/08 12:40:51;;;;;;;;;;;;;;;3.66;49.74;97989.25;5096784;28;19957;-75
2023/02/08 12:43:17;;;;;;;;;;;;;;;3.60;47.11;97992.38;5096724;28;19973;-75
2023/02/08 12:45:52;;;;;;;;;;;;;;;3.59;48.19;97982.94;5096740;28;19971;-75
2023/02/08 12:48:27;;;;;;;;;;;;;;;3.57;45.62;97982.28;5096974;28;19951;-75
2023/02/08 12:51:06;;;;;;;;;;;;;;;3.58;47.00;97989.09;5096531;28;19954;-75
2023/02/08 12:53:36;;;;;;;;;;;;;;;3.61;46.85;97984.47;5096706;28;19952;-75
2023/02/08 12:56:09;;;;;;;;;;;;;;;3.64;47.98;97978.19;5078622;28;20346;-75
2023/02/08 12:58:42;;;;;;;;;;;;;;;3.56;47.40;97978.03;5082499;28;19946;-75
2023/02/08 13:01:29;;;;;;;;;;;;;;;3.48;48.19;97959.75;5096931;28;20318;-74
2023/02/08 13:04:12;;;;;;;;;;;;;;;3.48;48.73;97957.16;5085118;28;19948;-75